sensor_id;sensor_type;location;lat;lon;timestamp;P1;durP1;ratioP1;P2;durP2;ratioP2
55134;SDS011;41031;44.750;11.308;2023-08-31T00:01:33;0.90;;;0.70;;
55134;SDS011;41031;44.750;11.308;2023-08-31T00:04:00;0.80;;;0.50;;
55134;SDS011;41031;44.750;11.308;2023-08-31T00:06:28;1.10;;;0.63;;
55134;SDS011;41031;44.750;11.308;2023-08-31T00:08:55;1.17;;;0.93;;
55134;SDS011;41031;44.750;11.308;2023-08-31T00:11:22;1.13;;;0.60;;
55134;SDS011;41031;44.750;11.308;2023-08-31T00:13:50;0.60;;;0.50;;
55134;SDS011;41031;44.750;11.308;2023-08-31T00:18:50;4.13;;;0.90;;
55134;SDS011;41031;44.750;11.308;2023-08-31T00:21:17;2.47;;;0.57;;
55134;SDS011;41031;44.750;11.308;2023-08-31T00:23:44;1.53;;;0.70;;
55134;SDS011;41031;44.750;11.308;2023-08-31T00:26:11;2.77;;;0.73;;
55134;SDS011;41031;44.750;11.308;2023-08-31T00:28:40;4.83;;;0.60;;
55134;SDS011;41031;44.750;11.308;2023-08-31T00:31:09;0.70;;;0.70;;
55134;SDS011;41031;44.750;11.308;2023-08-31T00:33:38;2.00;;;0.80;;
55134;SDS011;41031;44.750;11.308;2023-08-31T00:36:05;1.77;;;0.70;;
55134;SDS011;41031;44.750;11.308;2023-08-31T00:38:33;0.83;;;0.50;;
55134;SDS011;41031;44.750;11.308;2023-08-31T00:41:00;1.33;;;0.50;;
55134;SDS011;41031;44.750;11.308;2023-08-31T00:43:28;1.07;;;0.73;;
55134;SDS011;41031;44.750;11.308;2023-08-31T00:45:56;1.70;;;0.80;;
55134;SDS011;41031;44.750;11.308;2023-08-31T00:48:25;0.90;;;0.90;;
55134;SDS011;41031;44.750;11.308;2023-08-31T00:50:53;3.20;;;0.60;;
55134;SDS011;41031;44.750;11.308;2023-08-31T00:53:21;0.80;;;0.70;;
55134;SDS011;41031;44.750;11.308;2023-08-31T00:55:49;1.03;;;0.70;;
55134;SDS011;41031;44.750;11.308;2023-08-31T00:58:17;0.60;;;0.60;;
55134;SDS011;41031;44.750;11.308;2023-08-31T01:06:17;1.37;;;0.73;;
55134;SDS011;41031;44.750;11.308;2023-08-31T01:11:52;1.63;;;0.87;;
55134;SDS011;41031;44.750;11.308;2023-08-31T01:14:25;3.60;;;1.20;;
55134;SDS011;41031;44.750;11.308;2023-08-31T01:17:07;1.10;;;0.83;;
55134;SDS011;41031;44.750;11.308;2023-08-31T01:19:50;2.60;;;0.90;;
55134;SDS011;41031;44.750;11.308;2023-08-31T01:25:09;2.43;;;1.50;;
55134;SDS011;41031;44.750;11.308;2023-08-31T01:27:37;1.00;;;1.00;;
55134;SDS011;41031;44.750;11.308;2023-08-31T01:30:06;3.90;;;1.20;;
55134;SDS011;41031;44.750;11.308;2023-08-31T01:32:34;2.33;;;1.20;;
55134;SDS011;41031;44.750;11.308;2023-08-31T01:35:04;1.57;;;1.00;;
55134;SDS011;41031;44.750;11.308;2023-08-31T01:40:08;2.00;;;1.47;;
55134;SDS011;41031;44.750;11.308;2023-08-31T01:42:37;1.73;;;1.37;;
55134;SDS011;41031;44.750;11.308;2023-08-31T01:45:05;1.20;;;1.10;;
55134;SDS011;41031;44.750;11.308;2023-08-31T01:47:33;1.60;;;1.50;;
55134;SDS011;41031;44.750;11.308;2023-08-31T01:50:01;3.70;;;1.40;;
55134;SDS011;41031;44.750;11.308;2023-08-31T01:52:28;2.30;;;1.30;;
55134;SDS011;41031;44.750;11.308;2023-08-31T01:54:57;5.33;;;1.60;;
55134;SDS011;41031;44.750;11.308;2023-08-31T01:57:25;2.87;;;1.20;;
55134;SDS011;41031;44.750;11.308;2023-08-31T02:00:03;2.97;;;1.00;;
55134;SDS011;41031;44.750;11.308;2023-08-31T02:02:39;2.47;;;1.20;;
55134;SDS011;41031;44.750;11.308;2023-08-31T02:05:07;2.83;;;1.40;;
55134;SDS011;41031;44.750;11.308;2023-08-31T02:07:36;2.53;;;1.03;;
55134;SDS011;41031;44.750;11.308;2023-08-31T02:10:03;1.17;;;1.07;;
55134;SDS011;41031;44.750;11.308;2023-08-31T02:12:34;4.20;;;1.00;;
55134;SDS011;41031;44.750;11.308;2023-08-31T02:15:05;1.40;;;1.00;;
55134;SDS011;41031;44.750;11.308;2023-08-31T02:17:33;0.93;;;0.90;;
55134;SDS011;41031;44.750;11.308;2023-08-31T02:20:01;3.23;;;1.00;;
55134;SDS011;41031;44.750;11.308;2023-08-31T02:22:33;1.87;;;1.00;;
55134;SDS011;41031;44.750;11.308;2023-08-31T02:25:01;2.27;;;1.00;;
55134;SDS011;41031;44.750;11.308;2023-08-31T02:27:29;2.00;;;1.20;;
55134;SDS011;41031;44.750;11.308;2023-08-31T02:29:56;1.50;;;1.00;;
55134;SDS011;41031;44.750;11.308;2023-08-31T02:32:24;1.77;;;0.90;;
55134;SDS011;41031;44.750;11.308;2023-08-31T02:34:51;3.57;;;1.07;;
55134;SDS011;41031;44.750;11.308;2023-08-31T02:37:18;2.00;;;0.80;;
55134;SDS011;41031;44.750;11.308;2023-08-31T02:39:45;3.00;;;1.47;;
55134;SDS011;41031;44.750;11.308;2023-08-31T02:42:16;2.27;;;1.60;;
55134;SDS011;41031;44.750;11.308;2023-08-31T02:44:45;3.93;;;1.07;;
55134;SDS011;41031;44.750;11.308;2023-08-31T02:47:12;0.70;;;0.70;;
55134;SDS011;41031;44.750;11.308;2023-08-31T02:49:39;2.50;;;0.80;;
55134;SDS011;41031;44.750;11.308;2023-08-31T02:52:07;3.23;;;1.13;;
55134;SDS011;41031;44.750;11.308;2023-08-31T02:54:35;2.90;;;1.00;;
55134;SDS011;41031;44.750;11.308;2023-08-31T02:57:02;2.60;;;1.07;;
55134;SDS011;41031;44.750;11.308;2023-08-31T02:59:30;5.63;;;1.10;;
55134;SDS011;41031;44.750;11.308;2023-08-31T03:01:57;1.60;;;1.03;;
55134;SDS011;41031;44.750;11.308;2023-08-31T03:04:25;1.77;;;1.20;;
55134;SDS011;41031;44.750;11.308;2023-08-31T03:06:53;2.00;;;1.13;;
55134;SDS011;41031;44.750;11.308;2023-08-31T03:09:21;1.53;;;0.83;;
55134;SDS011;41031;44.750;11.308;2023-08-31T03:11:48;1.53;;;0.97;;
55134;SDS011;41031;44.750;11.308;2023-08-31T03:14:15;1.67;;;1.10;;
55134;SDS011;41031;44.750;11.308;2023-08-31T03:16:43;1.90;;;0.90;;
55134;SDS011;41031;44.750;11.308;2023-08-31T03:19:10;0.83;;;0.70;;
55134;SDS011;41031;44.750;11.308;2023-08-31T03:21:38;2.07;;;1.20;;
55134;SDS011;41031;44.750;11.308;2023-08-31T03:24:06;1.37;;;1.10;;
55134;SDS011;41031;44.750;11.308;2023-08-31T03:26:33;4.00;;;1.07;;
55134;SDS011;41031;44.750;11.308;2023-08-31T03:29:02;1.70;;;1.03;;
55134;SDS011;41031;44.750;11.308;2023-08-31T03:31:29;3.67;;;1.10;;
55134;SDS011;41031;44.750;11.308;2023-08-31T03:33:58;2.00;;;1.17;;
55134;SDS011;41031;44.750;11.308;2023-08-31T03:36:25;0.97;;;0.97;;
55134;SDS011;41031;44.750;11.308;2023-08-31T03:38:52;1.53;;;1.07;;
55134;SDS011;41031;44.750;11.308;2023-08-31T03:41:20;1.67;;;1.07;;
55134;SDS011;41031;44.750;11.308;2023-08-31T03:43:47;6.20;;;1.00;;
55134;SDS011;41031;44.750;11.308;2023-08-31T03:46:20;2.97;;;1.20;;
55134;SDS011;41031;44.750;11.308;2023-08-31T03:48:48;5.37;;;1.03;;
55134;SDS011;41031;44.750;11.308;2023-08-31T03:51:15;3.53;;;1.43;;
55134;SDS011;41031;44.750;11.308;2023-08-31T03:53:42;1.20;;;1.10;;
55134;SDS011;41031;44.750;11.308;2023-08-31T03:56:11;3.13;;;1.40;;
55134;SDS011;41031;44.750;11.308;2023-08-31T03:58:39;1.60;;;1.37;;
55134;SDS011;41031;44.750;11.308;2023-08-31T04:01:06;4.43;;;1.37;;
55134;SDS011;41031;44.750;11.308;2023-08-31T04:03:33;1.80;;;1.27;;
55134;SDS011;41031;44.750;11.308;2023-08-31T04:06:00;3.83;;;1.43;;
55134;SDS011;41031;44.750;11.308;2023-08-31T04:08:27;1.47;;;1.20;;
55134;SDS011;41031;44.750;11.308;2023-08-31T04:10:54;3.87;;;1.40;;
55134;SDS011;41031;44.750;11.308;2023-08-31T04:13:21;3.83;;;0.90;;
55134;SDS011;41031;44.750;11.308;2023-08-31T04:15:48;1.50;;;1.00;;
55134;SDS011;41031;44.750;11.308;2023-08-31T04:18:15;6.77;;;1.37;;
55134;SDS011;41031;44.750;11.308;2023-08-31T04:20:48;3.07;;;1.60;;
55134;SDS011;41031;44.750;11.308;2023-08-31T04:23:20;1.20;;;1.10;;
55134;SDS011;41031;44.750;11.308;2023-08-31T04:25:47;2.97;;;1.43;;
55134;SDS011;41031;44.750;11.308;2023-08-31T04:28:14;1.73;;;1.10;;
55134;SDS011;41031;44.750;11.308;2023-08-31T04:30:41;3.03;;;1.27;;
55134;SDS011;41031;44.750;11.308;2023-08-31T04:33:09;1.73;;;1.00;;
55134;SDS011;41031;44.750;11.308;2023-08-31T04:35:37;1.40;;;1.30;;
55134;SDS011;41031;44.750;11.308;2023-08-31T04:38:04;1.63;;;1.07;;
55134;SDS011;41031;44.750;11.308;2023-08-31T04:40:31;1.80;;;1.20;;
55134;SDS011;41031;44.750;11.308;2023-08-31T04:42:58;2.73;;;1.40;;
55134;SDS011;41031;44.750;11.308;2023-08-31T04:45:25;2.73;;;1.17;;
55134;SDS011;41031;44.750;11.308;2023-08-31T04:47:52;1.43;;;1.03;;
55134;SDS011;41031;44.750;11.308;2023-08-31T04:50:19;2.73;;;1.40;;
55134;SDS011;41031;44.750;11.308;2023-08-31T04:52:46;1.07;;;0.97;;
55134;SDS011;41031;44.750;11.308;2023-08-31T04:55:13;3.53;;;1.17;;
55134;SDS011;41031;44.750;11.308;2023-08-31T04:57:41;2.77;;;1.47;;
55134;SDS011;41031;44.750;11.308;2023-08-31T05:00:08;3.07;;;1.00;;
55134;SDS011;41031;44.750;11.308;2023-08-31T05:02:38;3.10;;;1.10;;
55134;SDS011;41031;44.750;11.308;2023-08-31T05:05:06;4.07;;;1.57;;
55134;SDS011;41031;44.750;11.308;2023-08-31T05:07:33;1.77;;;1.10;;
55134;SDS011;41031;44.750;11.308;2023-08-31T05:10:00;2.43;;;1.50;;
55134;SDS011;41031;44.750;11.308;2023-08-31T05:12:28;1.80;;;1.10;;
55134;SDS011;41031;44.750;11.308;2023-08-31T05:14:55;5.63;;;1.53;;
55134;SDS011;41031;44.750;11.308;2023-08-31T05:17:22;2.53;;;1.23;;
55134;SDS011;41031;44.750;11.308;2023-08-31T05:19:49;3.00;;;1.50;;
55134;SDS011;41031;44.750;11.308;2023-08-31T05:22:16;1.23;;;1.13;;
55134;SDS011;41031;44.750;11.308;2023-08-31T05:24:44;3.47;;;1.20;;
55134;SDS011;41031;44.750;11.308;2023-08-31T05:27:11;2.00;;;1.40;;
55134;SDS011;41031;44.750;11.308;2023-08-31T05:29:38;5.30;;;1.70;;
55134;SDS011;41031;44.750;11.308;2023-08-31T05:32:05;6.13;;;1.50;;
55134;SDS011;41031;44.750;11.308;2023-08-31T05:34:32;1.83;;;1.23;;
55134;SDS011;41031;44.750;11.308;2023-08-31T05:37:04;1.13;;;1.03;;
55134;SDS011;41031;44.750;11.308;2023-08-31T05:39:31;4.63;;;1.27;;
55134;SDS011;41031;44.750;11.308;2023-08-31T05:41:58;5.77;;;1.73;;
55134;SDS011;41031;44.750;11.308;2023-08-31T05:44:27;3.80;;;1.30;;
55134;SDS011;41031;44.750;11.308;2023-08-31T05:46:54;2.50;;;1.60;;
55134;SDS011;41031;44.750;11.308;2023-08-31T05:49:21;5.27;;;1.40;;
55134;SDS011;41031;44.750;11.308;2023-08-31T05:51:49;1.60;;;1.17;;
55134;SDS011;41031;44.750;11.308;2023-08-31T05:54:17;3.83;;;1.40;;
55134;SDS011;41031;44.750;11.308;2023-08-31T05:56:44;6.80;;;1.40;;
55134;SDS011;41031;44.750;11.308;2023-08-31T05:59:11;1.50;;;1.10;;
55134;SDS011;41031;44.750;11.308;2023-08-31T06:01:38;4.30;;;2.07;;
55134;SDS011;41031;44.750;11.308;2023-08-31T06:04:05;2.70;;;1.50;;
55134;SDS011;41031;44.750;11.308;2023-08-31T06:06:32;4.57;;;1.87;;
55134;SDS011;41031;44.750;11.308;2023-08-31T06:08:59;4.43;;;1.90;;
55134;SDS011;41031;44.750;11.308;2023-08-31T06:11:27;3.43;;;1.73;;
55134;SDS011;41031;44.750;11.308;2023-08-31T06:13:54;9.23;;;2.03;;
55134;SDS011;41031;44.750;11.308;2023-08-31T06:16:21;4.60;;;2.07;;
55134;SDS011;41031;44.750;11.308;2023-08-31T06:18:48;5.37;;;2.10;;
55134;SDS011;41031;44.750;11.308;2023-08-31T06:21:15;2.60;;;2.40;;
55134;SDS011;41031;44.750;11.308;2023-08-31T06:23:42;4.90;;;2.40;;
55134;SDS011;41031;44.750;11.308;2023-08-31T06:26:09;3.90;;;2.60;;
55134;SDS011;41031;44.750;11.308;2023-08-31T06:28:36;3.40;;;2.43;;
55134;SDS011;41031;44.750;11.308;2023-08-31T06:31:03;4.47;;;2.30;;
55134;SDS011;41031;44.750;11.308;2023-08-31T06:33:30;3.37;;;2.60;;
55134;SDS011;41031;44.750;11.308;2023-08-31T06:35:57;3.97;;;2.50;;
55134;SDS011;41031;44.750;11.308;2023-08-31T06:38:24;7.73;;;2.80;;
55134;SDS011;41031;44.750;11.308;2023-08-31T06:40:51;5.67;;;2.83;;
55134;SDS011;41031;44.750;11.308;2023-08-31T06:43:25;5.30;;;2.83;;
55134;SDS011;41031;44.750;11.308;2023-08-31T06:45:54;8.17;;;2.70;;
55134;SDS011;41031;44.750;11.308;2023-08-31T06:48:32;6.00;;;2.90;;
55134;SDS011;41031;44.750;11.308;2023-08-31T06:50:59;4.13;;;3.67;;
55134;SDS011;41031;44.750;11.308;2023-08-31T06:53:30;5.40;;;3.77;;
55134;SDS011;41031;44.750;11.308;2023-08-31T06:56:00;8.37;;;4.00;;
55134;SDS011;41031;44.750;11.308;2023-08-31T06:58:26;8.00;;;4.70;;
55134;SDS011;41031;44.750;11.308;2023-08-31T07:00:53;6.57;;;4.50;;
55134;SDS011;41031;44.750;11.308;2023-08-31T07:03:20;7.60;;;4.10;;
55134;SDS011;41031;44.750;11.308;2023-08-31T07:05:51;6.27;;;4.50;;
55134;SDS011;41031;44.750;11.308;2023-08-31T07:08:18;6.47;;;5.13;;
55134;SDS011;41031;44.750;11.308;2023-08-31T07:10:45;8.43;;;5.97;;
55134;SDS011;41031;44.750;11.308;2023-08-31T07:13:13;7.33;;;5.13;;
55134;SDS011;41031;44.750;11.308;2023-08-31T07:15:40;7.80;;;5.47;;
55134;SDS011;41031;44.750;11.308;2023-08-31T07:18:08;12.50;;;5.47;;
55134;SDS011;41031;44.750;11.308;2023-08-31T07:20:35;7.03;;;5.07;;
55134;SDS011;41031;44.750;11.308;2023-08-31T07:23:02;5.70;;;5.20;;
55134;SDS011;41031;44.750;11.308;2023-08-31T07:25:29;7.77;;;5.40;;
55134;SDS011;41031;44.750;11.308;2023-08-31T07:27:56;5.50;;;5.00;;
55134;SDS011;41031;44.750;11.308;2023-08-31T07:30:23;5.50;;;5.00;;
55134;SDS011;41031;44.750;11.308;2023-08-31T07:32:50;7.43;;;4.80;;
55134;SDS011;41031;44.750;11.308;2023-08-31T07:35:17;10.43;;;5.37;;
55134;SDS011;41031;44.750;11.308;2023-08-31T07:37:44;6.30;;;5.70;;
55134;SDS011;41031;44.750;11.308;2023-08-31T07:40:11;5.90;;;5.40;;
55134;SDS011;41031;44.750;11.308;2023-08-31T07:42:38;6.77;;;5.23;;
55134;SDS011;41031;44.750;11.308;2023-08-31T07:45:05;7.17;;;5.43;;
55134;SDS011;41031;44.750;11.308;2023-08-31T07:47:33;6.60;;;5.60;;
55134;SDS011;41031;44.750;11.308;2023-08-31T07:50:01;8.57;;;5.50;;
55134;SDS011;41031;44.750;11.308;2023-08-31T07:52:28;8.50;;;6.07;;
55134;SDS011;41031;44.750;11.308;2023-08-31T07:54:55;7.30;;;5.60;;
55134;SDS011;41031;44.750;11.308;2023-08-31T07:57:22;5.83;;;5.20;;
55134;SDS011;41031;44.750;11.308;2023-08-31T07:59:50;6.90;;;5.93;;
55134;SDS011;41031;44.750;11.308;2023-08-31T08:02:17;8.37;;;5.57;;
55134;SDS011;41031;44.750;11.308;2023-08-31T08:04:47;6.90;;;6.20;;
55134;SDS011;41031;44.750;11.308;2023-08-31T08:07:14;6.67;;;5.97;;
55134;SDS011;41031;44.750;11.308;2023-08-31T08:09:41;7.63;;;5.80;;
55134;SDS011;41031;44.750;11.308;2023-08-31T08:12:08;7.67;;;5.30;;
55134;SDS011;41031;44.750;11.308;2023-08-31T08:14:35;6.63;;;6.00;;
55134;SDS011;41031;44.750;11.308;2023-08-31T08:17:03;6.60;;;5.37;;
55134;SDS011;41031;44.750;11.308;2023-08-31T08:19:30;6.07;;;5.57;;
55134;SDS011;41031;44.750;11.308;2023-08-31T08:21:57;7.47;;;5.50;;
55134;SDS011;41031;44.750;11.308;2023-08-31T08:24:24;9.83;;;5.97;;
55134;SDS011;41031;44.750;11.308;2023-08-31T08:26:51;9.33;;;6.50;;
55134;SDS011;41031;44.750;11.308;2023-08-31T08:29:18;8.40;;;6.30;;
55134;SDS011;41031;44.750;11.308;2023-08-31T08:31:45;6.53;;;5.77;;
55134;SDS011;41031;44.750;11.308;2023-08-31T08:34:12;7.80;;;5.97;;
55134;SDS011;41031;44.750;11.308;2023-08-31T08:36:39;8.83;;;5.80;;
55134;SDS011;41031;44.750;11.308;2023-08-31T08:39:06;8.10;;;6.23;;
55134;SDS011;41031;44.750;11.308;2023-08-31T08:41:34;8.70;;;6.53;;
55134;SDS011;41031;44.750;11.308;2023-08-31T08:44:03;7.20;;;5.73;;
55134;SDS011;41031;44.750;11.308;2023-08-31T08:46:31;7.90;;;6.13;;
55134;SDS011;41031;44.750;11.308;2023-08-31T08:49:00;12.50;;;6.43;;
55134;SDS011;41031;44.750;11.308;2023-08-31T08:51:29;9.90;;;6.53;;
55134;SDS011;41031;44.750;11.308;2023-08-31T08:53:59;6.57;;;5.57;;
55134;SDS011;41031;44.750;11.308;2023-08-31T08:56:26;6.57;;;5.60;;
55134;SDS011;41031;44.750;11.308;2023-08-31T08:58:53;9.20;;;6.17;;
55134;SDS011;41031;44.750;11.308;2023-08-31T09:01:21;7.43;;;5.50;;
55134;SDS011;41031;44.750;11.308;2023-08-31T09:03:51;6.77;;;6.07;;
55134;SDS011;41031;44.750;11.308;2023-08-31T09:06:19;6.03;;;5.53;;
55134;SDS011;41031;44.750;11.308;2023-08-31T09:08:54;8.63;;;5.27;;
55134;SDS011;41031;44.750;11.308;2023-08-31T09:11:24;6.73;;;5.47;;
55134;SDS011;41031;44.750;11.308;2023-08-31T09:13:52;8.10;;;5.30;;
55134;SDS011;41031;44.750;11.308;2023-08-31T09:16:26;6.07;;;4.87;;
55134;SDS011;41031;44.750;11.308;2023-08-31T09:18:57;6.87;;;5.90;;
55134;SDS011;41031;44.750;11.308;2023-08-31T09:21:37;6.50;;;5.53;;
55134;SDS011;41031;44.750;11.308;2023-08-31T09:24:07;8.13;;;4.97;;
55134;SDS011;41031;44.750;11.308;2023-08-31T09:26:45;9.10;;;5.47;;
55134;SDS011;41031;44.750;11.308;2023-08-31T09:29:14;4.83;;;4.33;;
55134;SDS011;41031;44.750;11.308;2023-08-31T09:31:42;7.27;;;5.00;;
55134;SDS011;41031;44.750;11.308;2023-08-31T09:34:16;5.83;;;4.93;;
55134;SDS011;41031;44.750;11.308;2023-08-31T09:36:44;6.77;;;4.90;;
55134;SDS011;41031;44.750;11.308;2023-08-31T09:39:13;9.27;;;4.33;;
55134;SDS011;41031;44.750;11.308;2023-08-31T09:41:53;6.27;;;4.87;;
55134;SDS011;41031;44.750;11.308;2023-08-31T09:44:21;5.13;;;4.63;;
55134;SDS011;41031;44.750;11.308;2023-08-31T09:46:49;6.50;;;4.60;;
55134;SDS011;41031;44.750;11.308;2023-08-31T09:49:16;5.30;;;4.80;;
55134;SDS011;41031;44.750;11.308;2023-08-31T09:51:44;6.17;;;4.10;;
55134;SDS011;41031;44.750;11.308;2023-08-31T09:54:19;6.10;;;5.03;;
55134;SDS011;41031;44.750;11.308;2023-08-31T09:56:49;6.83;;;5.07;;
55134;SDS011;41031;44.750;11.308;2023-08-31T09:59:17;4.57;;;3.70;;
55134;SDS011;41031;44.750;11.308;2023-08-31T10:01:45;5.43;;;4.40;;
55134;SDS011;41031;44.750;11.308;2023-08-31T10:04:13;6.77;;;4.00;;
55134;SDS011;41031;44.750;11.308;2023-08-31T10:06:42;4.00;;;3.70;;
55134;SDS011;41031;44.750;11.308;2023-08-31T10:09:10;4.47;;;4.07;;
55134;SDS011;41031;44.750;11.308;2023-08-31T10:11:38;5.70;;;4.60;;
55134;SDS011;41031;44.750;11.308;2023-08-31T10:14:06;3.97;;;3.57;;
55134;SDS011;41031;44.750;11.308;2023-08-31T10:16:35;3.57;;;2.93;;
55134;SDS011;41031;44.750;11.308;2023-08-31T10:19:06;5.97;;;3.07;;
55134;SDS011;41031;44.750;11.308;2023-08-31T10:21:33;7.23;;;3.10;;
55134;SDS011;41031;44.750;11.308;2023-08-31T10:24:00;3.50;;;2.70;;
55134;SDS011;41031;44.750;11.308;2023-08-31T10:26:28;5.73;;;3.03;;
55134;SDS011;41031;44.750;11.308;2023-08-31T10:28:59;4.13;;;3.40;;
55134;SDS011;41031;44.750;11.308;2023-08-31T10:31:31;8.23;;;3.30;;
55134;SDS011;41031;44.750;11.308;2023-08-31T10:34:00;5.10;;;3.40;;
55134;SDS011;41031;44.750;11.308;2023-08-31T10:36:37;3.80;;;3.43;;
55134;SDS011;41031;44.750;11.308;2023-08-31T10:39:17;4.87;;;2.60;;
55134;SDS011;41031;44.750;11.308;2023-08-31T10:41:54;2.70;;;2.10;;
55134;SDS011;41031;44.750;11.308;2023-08-31T10:46:51;3.77;;;2.80;;
55134;SDS011;41031;44.750;11.308;2023-08-31T10:49:19;4.90;;;2.80;;
55134;SDS011;41031;44.750;11.308;2023-08-31T10:51:53;3.33;;;1.93;;
55134;SDS011;41031;44.750;11.308;2023-08-31T10:54:25;4.13;;;2.57;;
55134;SDS011;41031;44.750;11.308;2023-08-31T11:07:31;2.53;;;2.00;;
55134;SDS011;41031;44.750;11.308;2023-08-31T11:10:10;3.23;;;2.10;;
55134;SDS011;41031;44.750;11.308;2023-08-31T11:12:42;3.27;;;2.43;;
55134;SDS011;41031;44.750;11.308;2023-08-31T11:15:11;2.83;;;1.93;;
55134;SDS011;41031;44.750;11.308;2023-08-31T11:17:40;3.50;;;2.43;;
55134;SDS011;41031;44.750;11.308;2023-08-31T11:20:08;2.93;;;2.07;;
55134;SDS011;41031;44.750;11.308;2023-08-31T11:22:40;2.90;;;2.40;;
55134;SDS011;41031;44.750;11.308;2023-08-31T11:25:08;3.57;;;2.17;;
55134;SDS011;41031;44.750;11.308;2023-08-31T11:27:39;3.80;;;2.40;;
55134;SDS011;41031;44.750;11.308;2023-08-31T11:30:15;2.73;;;2.53;;
55134;SDS011;41031;44.750;11.308;2023-08-31T11:32:46;3.00;;;2.03;;
55134;SDS011;41031;44.750;11.308;2023-08-31T11:35:14;3.73;;;2.60;;
55134;SDS011;41031;44.750;11.308;2023-08-31T11:37:50;3.00;;;2.53;;
55134;SDS011;41031;44.750;11.308;2023-08-31T11:40:18;3.77;;;2.30;;
55134;SDS011;41031;44.750;11.308;2023-08-31T11:42:47;3.67;;;2.03;;
55134;SDS011;41031;44.750;11.308;2023-08-31T11:45:15;2.30;;;2.10;;
55134;SDS011;41031;44.750;11.308;2023-08-31T11:47:43;6.30;;;2.87;;
55134;SDS011;41031;44.750;11.308;2023-08-31T11:50:11;3.83;;;2.50;;
55134;SDS011;41031;44.750;11.308;2023-08-31T11:52:40;3.23;;;2.30;;
55134;SDS011;41031;44.750;11.308;2023-08-31T11:55:11;5.17;;;3.20;;
55134;SDS011;41031;44.750;11.308;2023-08-31T11:57:39;6.40;;;1.87;;
55134;SDS011;41031;44.750;11.308;2023-08-31T12:00:07;2.87;;;1.80;;
55134;SDS011;41031;44.750;11.308;2023-08-31T12:02:37;2.77;;;2.10;;
55134;SDS011;41031;44.750;11.308;2023-08-31T12:05:04;3.07;;;2.60;;
55134;SDS011;41031;44.750;11.308;2023-08-31T12:07:41;4.00;;;2.50;;
55134;SDS011;41031;44.750;11.308;2023-08-31T12:10:09;6.87;;;3.17;;
55134;SDS011;41031;44.750;11.308;2023-08-31T12:12:36;5.60;;;2.90;;
55134;SDS011;41031;44.750;11.308;2023-08-31T12:15:05;3.07;;;2.03;;
55134;SDS011;41031;44.750;11.308;2023-08-31T12:17:36;2.30;;;2.10;;
55134;SDS011;41031;44.750;11.308;2023-08-31T12:20:05;6.37;;;1.80;;
55134;SDS011;41031;44.750;11.308;2023-08-31T12:22:33;5.00;;;2.07;;
55134;SDS011;41031;44.750;11.308;2023-08-31T12:25:01;2.00;;;1.23;;
55134;SDS011;41031;44.750;11.308;2023-08-31T12:27:28;3.63;;;1.37;;
55134;SDS011;41031;44.750;11.308;2023-08-31T12:29:57;2.90;;;1.60;;
55134;SDS011;41031;44.750;11.308;2023-08-31T12:32:24;2.80;;;1.27;;
55134;SDS011;41031;44.750;11.308;2023-08-31T12:34:51;2.77;;;1.60;;
55134;SDS011;41031;44.750;11.308;2023-08-31T12:37:18;4.13;;;1.57;;
55134;SDS011;41031;44.750;11.308;2023-08-31T12:39:46;3.10;;;1.20;;
55134;SDS011;41031;44.750;11.308;2023-08-31T12:42:13;2.47;;;1.20;;
55134;SDS011;41031;44.750;11.308;2023-08-31T12:44:49;4.00;;;1.10;;
55134;SDS011;41031;44.750;11.308;2023-08-31T12:47:16;2.53;;;1.83;;
55134;SDS011;41031;44.750;11.308;2023-08-31T12:49:43;2.53;;;1.17;;
55134;SDS011;41031;44.750;11.308;2023-08-31T12:52:10;4.40;;;1.30;;
55134;SDS011;41031;44.750;11.308;2023-08-31T12:54:37;2.07;;;1.20;;
55134;SDS011;41031;44.750;11.308;2023-08-31T12:57:04;2.37;;;1.50;;
55134;SDS011;41031;44.750;11.308;2023-08-31T12:59:31;2.57;;;1.30;;
55134;SDS011;41031;44.750;11.308;2023-08-31T13:01:58;4.83;;;1.30;;
55134;SDS011;41031;44.750;11.308;2023-08-31T13:04:26;2.53;;;1.43;;
55134;SDS011;41031;44.750;11.308;2023-08-31T13:06:54;1.37;;;1.00;;
55134;SDS011;41031;44.750;11.308;2023-08-31T13:09:21;3.30;;;1.10;;
55134;SDS011;41031;44.750;11.308;2023-08-31T13:11:48;1.93;;;1.00;;
55134;SDS011;41031;44.750;11.308;2023-08-31T13:14:16;1.90;;;1.10;;
55134;SDS011;41031;44.750;11.308;2023-08-31T13:16:42;3.33;;;1.20;;
55134;SDS011;41031;44.750;11.308;2023-08-31T13:19:09;1.00;;;1.00;;
55134;SDS011;41031;44.750;11.308;2023-08-31T13:21:36;2.03;;;1.00;;
55134;SDS011;41031;44.750;11.308;2023-08-31T13:24:04;4.93;;;1.40;;
55134;SDS011;41031;44.750;11.308;2023-08-31T13:26:31;2.07;;;1.40;;
55134;SDS011;41031;44.750;11.308;2023-08-31T13:28:58;1.10;;;1.00;;
55134;SDS011;41031;44.750;11.308;2023-08-31T13:31:25;1.77;;;1.00;;
55134;SDS011;41031;44.750;11.308;2023-08-31T13:33:52;6.67;;;1.43;;
55134;SDS011;41031;44.750;11.308;2023-08-31T13:36:19;6.07;;;1.20;;
55134;SDS011;41031;44.750;11.308;2023-08-31T13:38:46;4.10;;;1.27;;
55134;SDS011;41031;44.750;11.308;2023-08-31T13:41:13;3.27;;;1.23;;
55134;SDS011;41031;44.750;11.308;2023-08-31T13:43:40;2.33;;;1.43;;
55134;SDS011;41031;44.750;11.308;2023-08-31T13:46:07;5.13;;;1.43;;
55134;SDS011;41031;44.750;11.308;2023-08-31T13:48:34;1.53;;;1.13;;
55134;SDS011;41031;44.750;11.308;2023-08-31T13:51:02;3.13;;;1.40;;
55134;SDS011;41031;44.750;11.308;2023-08-31T13:53:29;9.03;;;1.40;;
55134;SDS011;41031;44.750;11.308;2023-08-31T13:55:56;2.47;;;1.13;;
55134;SDS011;41031;44.750;11.308;2023-08-31T13:58:23;3.10;;;1.53;;
55134;SDS011;41031;44.750;11.308;2023-08-31T14:00:50;1.50;;;1.20;;
55134;SDS011;41031;44.750;11.308;2023-08-31T14:03:17;1.87;;;1.20;;
55134;SDS011;41031;44.750;11.308;2023-08-31T14:05:47;3.27;;;1.33;;
55134;SDS011;41031;44.750;11.308;2023-08-31T14:08:15;2.70;;;1.27;;
55134;SDS011;41031;44.750;11.308;2023-08-31T14:10:42;4.77;;;1.63;;
55134;SDS011;41031;44.750;11.308;2023-08-31T14:13:09;2.50;;;1.20;;
55134;SDS011;41031;44.750;11.308;2023-08-31T14:15:36;3.43;;;1.70;;
55134;SDS011;41031;44.750;11.308;2023-08-31T14:18:10;2.13;;;1.20;;
55134;SDS011;41031;44.750;11.308;2023-08-31T14:20:38;5.60;;;1.50;;
55134;SDS011;41031;44.750;11.308;2023-08-31T14:23:05;4.67;;;1.33;;
55134;SDS011;41031;44.750;11.308;2023-08-31T14:25:36;6.63;;;1.60;;
55134;SDS011;41031;44.750;11.308;2023-08-31T14:28:04;4.03;;;1.60;;
55134;SDS011;41031;44.750;11.308;2023-08-31T14:30:32;5.33;;;1.30;;
55134;SDS011;41031;44.750;11.308;2023-08-31T14:33:01;2.63;;;1.10;;
55134;SDS011;41031;44.750;11.308;2023-08-31T14:35:28;3.00;;;1.33;;
55134;SDS011;41031;44.750;11.308;2023-08-31T14:37:56;2.63;;;1.50;;
55134;SDS011;41031;44.750;11.308;2023-08-31T14:40:24;1.80;;;1.17;;
55134;SDS011;41031;44.750;11.308;2023-08-31T14:42:51;5.00;;;1.53;;
55134;SDS011;41031;44.750;11.308;2023-08-31T14:45:20;3.80;;;1.30;;
55134;SDS011;41031;44.750;11.308;2023-08-31T14:47:48;4.23;;;1.47;;
55134;SDS011;41031;44.750;11.308;2023-08-31T14:50:15;1.80;;;1.17;;
55134;SDS011;41031;44.750;11.308;2023-08-31T14:52:42;3.27;;;1.30;;
55134;SDS011;41031;44.750;11.308;2023-08-31T14:55:09;1.80;;;1.20;;
55134;SDS011;41031;44.750;11.308;2023-08-31T14:57:36;2.60;;;1.60;;
55134;SDS011;41031;44.750;11.308;2023-08-31T15:00:03;3.63;;;1.50;;
55134;SDS011;41031;44.750;11.308;2023-08-31T15:02:32;2.60;;;1.37;;
55134;SDS011;41031;44.750;11.308;2023-08-31T15:04:59;2.10;;;1.30;;
55134;SDS011;41031;44.750;11.308;2023-08-31T15:07:26;5.60;;;1.10;;
55134;SDS011;41031;44.750;11.308;2023-08-31T15:09:53;5.23;;;1.10;;